Time;durP1;ratioP1;P1;durP2;ratioP2;P2;SDS_P1;SDS_P2;PMS_P1;PMS_P2;Temp;Humidity;BMP_temperature;BMP_pressure;BME280_temperature;BME280_humidity;BME280_pressure;Samples;Min_cycle;Max_cycle;Signal;HPM_P1;HPM_P2
2022/02/10 00:17:26;;;;;;;6.30;5.10;;;;;;;19.27;41.76;101808.22;4986560;28;20042;-44
2022/02/10 00:38:13;;;;;;;5.65;4.50;;;;;;;19.15;41.08;101812.19;4987200;28;20042;-43
2022/02/10 00:40:39;;;;;;;5.65;4.25;;;;;;;19.13;40.89;101807.09;4986126;28;20147;-44
2022/02/10 00:43:06;;;;;;;6.28;4.40;;;;;;;19.13;40.87;101803.63;4986865;28;20143;-48
2022/02/10 00:45:33;;;;;;;5.63;4.15;;;;;;;19.11;40.70;101809.06;4986753;28;20054;-44
2022/02/10 00:48:03;;;;;;;6.70;5.43;;;;;;;19.11;40.54;101808.25;4968950;28;20549;-44
2022/02/10 00:50:30;;;;;;;5.68;4.68;;;;;;;19.09;40.40;101815.50;4986219;28;20030;-47
2022/02/10 00:53:45;;;;;;;7.22;4.97;;;;;;;19.09;40.44;101810.22;4988718;28;20470;-47
2022/02/10 00:55:46;;;;;;;6.55;4.63;;;;;;;19.06;40.55;101806.09;4979131;28;20129;-43
2022/02/10 00:58:19;;;;;;;6.40;4.22;;;;;;;19.06;40.38;101802.63;4988510;28;20438;-42
2022/02/10 01:30:18;;;;;;;6.55;4.10;;;;;;;18.92;40.25;101790.09;4989420;28;20066;-50
2022/02/10 01:32:47;;;;;;;3.85;3.30;;;;;;;18.91;40.24;101799.84;4989042;28;20382;-42
2022/02/10 01:35:18;;;;;;;5.15;3.83;;;;;;;18.92;40.31;101800.66;4971706;28;20126;-49
2022/02/10 01:37:44;;;;;;;4.97;4.07;;;;;;;18.90;40.28;101791.09;4987864;28;20376;-46
2022/02/10 01:40:23;;;;;;;4.70;3.80;;;;;;;18.90;40.37;101790.28;4989135;28;20030;-44
2022/02/10 01:43:25;;;;;;;6.15;4.10;;;;;;;18.88;40.24;101800.19;4952196;28;20449;-47
2022/02/10 02:04:45;;;;;;;4.75;3.58;;;;;;;18.81;39.81;101784.19;4988355;28;20149;-42
2022/02/10 02:07:11;;;;;;;4.00;3.42;;;;;;;18.83;39.83;101776.13;4988523;28;20042;-45
2022/02/10 02:09:37;;;;;;;4.50;3.72;;;;;;;18.82;39.81;101775.28;4988536;28;20026;-50
2022/02/10 02:12:06;;;;;;;5.28;3.60;;;;;;;18.82;39.76;101769.19;5114943;23;20528;-44
2022/02/10 02:14:32;;;;;;;5.53;4.38;;;;;;;18.82;39.68;101775.28;4987766;28;20122;-43
2022/02/10 02:17:02;;;;;;;5.70;4.28;;;;;;;18.81;39.66;101773.63;4988588;28;20117;-44
2022/02/10 02:19:29;;;;;;;5.65;4.65;;;;;;;18.81;39.57;101771.00;4967363;28;20031;-45
2022/02/10 02:22:10;;;;;;;5.18;4.20;;;;;;;18.77;39.51;101766.22;4969537;28;20053;-40
2022/02/10 02:24:36;;;;;;;6.05;4.22;;;;;;;18.78;39.50;101768.69;4980819;28;20045;-45
2022/02/10 02:27:03;;;;;;;4.93;4.43;;;;;;;18.76;39.48;101760.09;4992850;28;20157;-47
2022/02/10 02:29:35;;;;;;;4.55;3.78;;;;;;;18.77;39.50;101767.03;4970759;28;20069;-49
2022/02/10 02:32:07;;;;;;;6.55;3.80;;;;;;;18.75;39.46;101763.75;4988152;28;20162;-44
2022/02/10 02:35:02;;;;;;;4.88;3.45;;;;;;;18.74;39.36;101762.09;4987768;28;20066;-44
2022/02/10 03:04:52;;;;;;;6.47;3.53;;;;;;;18.59;39.48;101755.78;4987722;28;20044;-48
2022/02/10 03:10:05;;;;;;;4.32;3.35;;;;;;;18.59;39.51;101758.44;4987480;28;20136;-46
2022/02/10 03:12:30;;;;;;;3.92;2.80;;;;;;;18.58;39.63;101762.06;4987073;28;20094;-48
2022/02/10 03:14:59;;;;;;;3.55;2.90;;;;;;;18.58;39.58;101762.06;4986514;28;20062;-44
2022/02/10 03:20:17;;;;;;;3.63;2.92;;;;;;;18.58;39.63;101756.78;4971048;28;20030;-43
2022/02/10 04:01:41;;;;;;;3.97;3.05;;;;;;;18.44;39.44;101729.22;4945700;28;20472;-42
2022/02/10 04:04:30;;;;;;;4.18;2.72;;;;;;;18.44;39.43;101738.97;4966978;28;20118;-47
2022/02/10 04:12:07;;;;;;;3.10;2.70;;;;;;;18.39;39.47;101734.19;4986534;28;20091;-43
2022/02/10 04:14:41;;;;;;;4.47;2.70;;;;;;;18.42;39.41;101730.41;4969039;28;20034;-43
2022/02/10 04:25:34;;;;;;;3.28;2.15;;;;;;;18.41;39.52;101729.59;4962915;28;20043;-43
2022/02/10 04:42:44;;;;;;;3.35;2.20;;;;;;;18.37;39.36;101707.16;5009381;28;20033;-42
2022/02/10 04:55:23;;;;;;;2.90;2.22;;;;;;;18.32;39.46;101698.09;5009191;28;20064;-44
2022/02/10 05:04:25;;;;;;;3.25;2.40;;;;;;;18.28;39.35;101696.78;5009612;28;20045;-45
2022/02/10 05:12:22;;;;;;;2.03;1.58;;;;;;;18.23;39.16;101698.09;4989428;28;20037;-41
2022/02/10 05:33:15;;;;;;;2.83;1.80;;;;;;;18.54;38.95;101695.56;4989310;28;20057;-44
2022/02/10 05:35:50;;;;;;;2.72;1.98;;;;;;;18.61;38.84;101702.88;4988870;28;20518;-40
2022/02/10 05:38:53;;;;;;;2.65;2.05;;;;;;;18.66;38.80;101695.28;4988591;28;20042;-41
2022/02/10 06:02:25;;;;;;;2.15;1.60;;;;;;;19.22;38.46;101696.94;4933833;29;20035;-45
2022/02/10 07:50:44;;;;;;;6.88;2.40;;;;;;;20.11;38.63;101704.38;4986463;28;20583;-44
2022/02/10 08:00:35;;;;;;;5.63;1.63;;;;;;;20.08;39.21;101695.97;4986945;28;20038;-44
2022/02/10 08:55:17;;;;;;;7.82;2.08;;;;;;;19.77;38.61;101673.06;4987283;28;20038;-45
2022/02/10 08:58:05;;;;;;;3.70;2.17;;;;;;;19.73;38.51;101679.69;4971873;28;20030;-42
2022/02/10 09:18:59;;;;;;;5.45;1.65;;;;;;;19.61;38.45;101682.88;4989447;28;20045;-46
2022/02/10 10:01:01;;;;;;;2.33;0.90;;;;;;;19.25;39.27;101685.19;4988671;28;20038;-45
2022/02/10 10:03:42;;;;;;;;;;;;;;;19.16;39.48;101692.31;4971509;28;20053;-43
2022/02/10 10:06:19;;;;;;;2.97;1.08;;;;;;;19.17;39.31;101689.53;4988761;28;19918;-46
2022/02/10 10:09:07;;;;;;;2.38;1.05;;;;;;;19.18;39.18;101690.34;4972527;28;20030;-45
2022/02/10 10:14:11;;;;;;;2.45;1.05;;;;;;;19.16;39.48;101687.88;4988860;28;20037;-46
2022/02/10 10:19:37;;;;;;;2.05;1.10;;;;;;;19.16;39.71;101692.31;4988346;28;20184;-46
2022/02/10 10:22:18;;;;;;;1.83;0.98;;;;;;;19.14;39.79;101691.69;4981312;28;20512;-48
2022/02/10 10:51:01;;;;;;;2.25;1.40;;;;;;;18.94;39.56;101658.72;5063677;28;20315;-42
2022/02/10 10:53:51;;;;;;;2.08;1.08;;;;;;;18.96;39.52;101654.91;5062467;28;20033;-43
2022/02/10 10:56:37;;;;;;;2.40;1.00;;;;;;;18.97;39.41;101645.19;5063730;28;20127;-44
2022/02/10 14:09:16;;;;;;;4.38;2.38;;;;;;;18.43;41.20;101505.16;5045043;28;20047;-41
2022/02/10 14:12:40;;;;;;;;;;;;;;;18.33;41.31;101497.41;4995003;22;20046;-40
2022/02/10 14:17:46;;;;;;;3.95;2.03;;;;;;;18.36;41.44;101502.34;5003146;28;20934;-41
2022/02/10 14:25:44;;;;;;;3.53;2.15;;;;;;;18.33;41.63;101502.69;5001876;28;20049;-40
2022/02/10 14:28:10;;;;;;;2.55;1.63;;;;;;;18.33;41.59;101496.59;5002788;28;20036;-39
2022/02/10 14:30:35;;;;;;;3.00;1.67;;;;;;;18.34;41.70;101490.31;5005105;28;20034;-45
2022/02/10 14:33:01;;;;;;;2.67;1.92;;;;;;;18.34;41.67;101492.97;5003742;28;20036;-41
2022/02/10 14:35:34;;;;;;;3.88;2.03;;;;;;;18.34;41.50;101482.41;5002137;28;20033;-42
2022/02/10 14:38:45;;;;;;;4.55;2.40;;;;;;;18.33;41.68;101480.78;4993457;28;20030;-41
2022/02/10 15:49:26;;;;;;;5.65;2.42;;;;;;;18.19;41.93;101463.81;5009159;28;20088;-40
2022/02/10 16:18:19;;;;;;;6.35;3.47;;;;;;;18.56;41.94;101452.63;5008231;28;20115;-41
2022/02/10 16:20:56;;;;;;;5.53;2.47;;;;;;;18.61;41.87;101460.03;5009036;28;20113;-42
2022/02/10 16:23:24;;;;;;;7.85;2.90;;;;;;;18.61;41.61;101450.31;5007180;28;20044;-41
2022/02/10 16:26:01;;;;;;;5.93;2.45;;;;;;;18.65;41.49;101456.06;5004930;28;20034;-41
2022/02/10 16:28:34;;;;;;;5.72;2.85;;;;;;;18.69;41.48;101457.38;5007811;28;20038;-40
2022/02/10 16:31:00;;;;;;;4.07;2.70;;;;;;;18.74;41.35;101458.50;5007051;28;20128;-43
2022/02/10 16:33:26;;;;;;;7.55;2.53;;;;;;;18.83;41.39;101456.63;5007990;28;20116;-43
2022/02/10 16:35:51;;;;;;;4.70;2.85;;;;;;;18.91;41.57;101451.28;5007045;28;20452;-41
2022/02/10 16:38:17;;;;;;;5.05;2.60;;;;;;;18.97;41.26;101455.03;5009172;28;20029;-40
2022/02/10 16:40:43;;;;;;;4.80;3.08;;;;;;;19.04;41.29;101450.69;5006113;28;20092;-43
2022/02/10 16:43:09;;;;;;;5.45;2.90;;;;;;;19.11;41.28;101456.94;5008743;28;20041;-40
2022/02/10 16:45:35;;;;;;;3.75;2.53;;;;;;;19.17;41.06;101457.06;5005422;28;20037;-46
2022/02/10 16:48:01;;;;;;;4.47;2.70;;;;;;;19.23;40.94;101450.25;5006252;28;20752;-40
2022/02/10 16:50:27;;;;;;;5.75;2.67;;;;;;;19.29;40.83;101457.47;5007954;28;20049;-42
2022/02/10 16:53:00;;;;;;;5.97;2.63;;;;;;;19.34;40.71;101457.75;5005050;28;20469;-43
2022/02/10 17:14:51;;;;;;;3.65;2.25;;;;;;;19.87;39.95;101463.88;5006902;28;20052;-48
2022/02/10 17:30:44;;;;;;;2.95;2.20;;;;;;;20.03;40.04;101462.88;5006060;28;20030;-41
2022/02/10 17:43:59;;;;;;;6.05;2.25;;;;;;;20.18;40.01;101466.34;5006152;28;20099;-44
2022/02/10 17:46:01;;;;;;;4.65;2.40;;;;;;;20.19;40.15;101458.25;5006767;28;20510;-43
2022/02/10 17:53:53;;;;;;;5.22;2.30;;;;;;;20.26;40.12;101473.38;4987074;28;20573;-42
2022/02/10 17:56:19;;;;;;;3.58;2.10;;;;;;;20.27;40.07;101467.09;4987001;28;20049;-42
2022/02/10 17:58:45;;;;;;;5.28;2.10;;;;;;;20.29;39.87;101465.09;4987154;28;20037;-41
2022/02/10 18:01:12;;;;;;;4.15;2.42;;;;;;;20.30;39.85;101462.25;4987475;28;20032;-43
2022/02/10 18:03:38;;;;;;;3.70;2.28;;;;;;;20.33;40.15;101464.50;4987548;28;20062;-42
2022/02/10 18:09:06;;;;;;;3.80;2.42;;;;;;;20.37;39.91;101471.06;4994226;28;20481;-42
2022/02/10 18:14:30;;;;;;;3.42;2.10;;;;;;;20.38;39.88;101472.75;5006685;28;20798;-42
2022/02/10 18:16:58;;;;;;;3.22;2.22;;;;;;;20.38;39.70;101472.75;5005405;28;20145;-45
2022/02/10 18:27:20;;;;;;;3.83;2.15;;;;;;;20.38;39.70;101472.75;5006330;28;20033;-42
2022/02/10 18:30:12;;;;;;;2.35;1.58;;;;;;;20.36;39.94;101471.25;5006692;28;20547;-43
2022/02/10 18:37:51;;;;;;;3.45;2.10;;;;;;;20.34;39.80;101467.97;5006768;28;20560;-44
2022/02/10 19:05:53;;;;;;;5.43;2.15;;;;;;;20.32;40.60;101473.44;4969994;28;20604;-41
2022/02/10 19:10:56;;;;;;;2.85;2.15;;;;;;;20.34;40.72;101475.91;4971251;28;20042;-41
2022/02/10 19:13:23;;;;;;;3.05;2.22;;;;;;;20.30;40.83;101472.84;4979879;28;20064;-41
2022/02/10 19:15:51;;;;;;;4.30;2.45;;;;;;;20.27;40.93;101472.38;4975040;28;20030;-41
2022/02/10 19:18:17;;;;;;;7.53;2.35;;;;;;;20.23;41.10;101471.94;5010593;28;20485;-42
2022/02/10 19:20:44;;;;;;;5.05;2.55;;;;;;;20.18;41.27;101467.19;5009019;28;20069;-41
2022/02/10 19:23:10;;;;;;;5.30;2.22;;;;;;;20.16;41.44;101469.19;5026817;28;20041;-40
2022/02/10 19:25:39;;;;;;;3.63;2.10;;;;;;;20.13;41.33;101466.91;5008025;28;20029;-41
2022/02/10 19:28:06;;;;;;;2.67;2.00;;;;;;;20.10;41.33;101464.63;5007277;28;20110;-41
2022/02/10 19:30:34;;;;;;;4.78;2.33;;;;;;;20.08;41.64;101468.44;5008077;28;20029;-41
2022/02/10 19:33:02;;;;;;;4.53;2.50;;;;;;;20.05;41.86;101461.69;5028085;28;20029;-41
2022/02/10 19:35:30;;;;;;;3.72;2.35;;;;;;;20.03;41.75;101455.78;5018309;28;20030;-40
2022/02/10 19:38:02;;;;;;;5.65;2.47;;;;;;;20.04;41.76;101456.59;5012079;28;20389;-40
2022/02/10 19:40:38;;;;;;;7.30;2.15;;;;;;;20.03;41.65;101463.72;4999802;28;20034;-41
2022/02/10 19:43:05;;;;;;;9.63;2.42;;;;;;;20.03;41.64;101458.41;5018402;28;20069;-39
2022/02/10 19:45:30;;;;;;;2.72;1.55;;;;;;;20.03;41.99;101455.78;5011688;28;20022;-40
2022/02/10 19:47:56;;;;;;;6.88;2.28;;;;;;;20.01;41.97;101457.78;5005259;28;20095;-39
2022/02/10 19:50:27;;;;;;;4.55;2.00;;;;;;;20.00;42.09;101458.78;5007036;28;20034;-40
2022/02/10 19:52:56;;;;;;;5.80;1.75;;;;;;;19.97;41.93;101456.50;5007020;28;20042;-39
2022/02/10 19:55:24;;;;;;;3.45;2.00;;;;;;;19.96;41.71;101469.91;5004332;28;20505;-40
2022/02/10 19:57:55;;;;;;;3.75;2.10;;;;;;;19.95;41.62;101465.63;5000722;28;20038;-41
2022/02/10 20:00:25;;;;;;;3.67;2.13;;;;;;;19.94;41.51;101464.78;5001632;28;20030;-39
2022/02/10 20:02:51;;;;;;;4.15;2.00;;;;;;;19.92;41.66;101458.03;5008976;28;20041;-40
2022/02/10 20:05:25;;;;;;;4.55;2.10;;;;;;;19.89;41.40;101465.34;5006507;28;20119;-39
2022/02/10 20:07:52;;;;;;;6.57;2.38;;;;;;;19.85;41.62;101465.88;5008408;28;20065;-40
2022/02/10 20:10:18;;;;;;;7.03;2.10;;;;;;;19.86;41.69;101470.97;5008016;28;20611;-41
2022/02/10 20:12:44;;;;;;;3.75;2.38;;;;;;;19.85;41.42;101466.69;4999554;28;20107;-40
2022/02/10 20:15:12;;;;;;;4.90;2.40;;;;;;;19.86;41.66;101472.81;5011229;28;20086;-40
2022/02/10 20:17:38;;;;;;;5.15;2.63;;;;;;;19.85;41.54;101466.69;5018842;28;20516;-39
2022/02/10 20:20:05;;;;;;;3.53;2.40;;;;;;;19.85;41.49;101464.06;5007282;28;20385;-40
2022/02/10 20:22:35;;;;;;;5.85;2.08;;;;;;;19.83;41.43;101474.03;5008624;28;20054;-39
2022/02/10 20:25:03;;;;;;;2.67;1.88;;;;;;;19.83;41.44;101478.47;5006201;28;20037;-40
2022/02/10 20:27:28;;;;;;;3.97;2.35;;;;;;;19.82;41.28;101471.56;5005558;28;20049;-40
2022/02/10 20:29:54;;;;;;;5.75;2.38;;;;;;;19.81;41.09;101469.91;5008312;28;20543;-40
2022/02/10 20:32:20;;;;;;;4.82;2.28;;;;;;;19.81;41.14;101467.25;5009270;28;20033;-41
2022/02/10 20:34:45;;;;;;;4.63;2.40;;;;;;;19.79;40.92;101466.63;5007166;28;20037;-39
2022/02/10 20:37:12;;;;;;;8.35;2.72;;;;;;;19.77;40.75;101468.63;5006180;28;20033;-40
2022/02/10 20:39:38;;;;;;;3.20;2.55;;;;;;;19.74;40.87;101468.97;5006917;28;20033;-41
2022/02/10 20:42:07;;;;;;;11.10;2.78;;;;;;;19.72;40.61;101471.81;5006648;28;20176;-40
2022/02/10 20:44:34;;;;;;;5.55;2.28;;;;;;;19.71;40.71;101479.91;5006451;28;20025;-41
2022/02/10 20:47:00;;;;;;;5.65;2.83;;;;;;;19.67;40.68;101482.09;5006270;28;20033;-41
2022/02/10 20:49:29;;;;;;;5.95;2.40;;;;;;;19.66;40.59;101477.00;5004993;28;20025;-41
2022/02/10 20:51:57;;;;;;;4.55;2.65;;;;;;;19.64;40.61;101479.00;5008220;28;20026;-41
2022/02/10 20:54:26;;;;;;;2.85;2.47;;;;;;;19.63;40.48;101477.34;5007404;28;20507;-40
2022/02/10 20:56:51;;;;;;;4.38;2.90;;;;;;;19.61;40.54;101474.06;5007813;28;20108;-41
2022/02/10 21:01:57;;;;;;;4.40;2.30;;;;;;;19.55;40.63;101465.84;5005092;28;20045;-40
2022/02/10 21:04:23;;;;;;;5.65;2.88;;;;;;;19.57;40.65;101467.47;4995930;28;20045;-42
2022/02/10 21:06:59;;;;;;;4.13;3.08;;;;;;;19.54;40.63;101469.47;5007543;28;20029;-40
2022/02/10 21:12:04;;;;;;;3.25;2.60;;;;;;;19.51;40.70;101469.84;5005007;28;20057;-42
2022/02/10 21:14:30;;;;;;;4.80;2.55;;;;;;;19.49;40.53;101474.44;5023604;28;20029;-40
2022/02/10 21:16:57;;;;;;;6.00;2.88;;;;;;;19.48;40.41;101470.16;5007536;28;20033;-40
2022/02/10 21:19:24;;;;;;;5.43;2.63;;;;;;;19.46;40.43;101466.06;5007708;28;20501;-40
2022/02/10 21:21:51;;;;;;;4.57;2.67;;;;;;;19.45;40.39;101470.50;5005257;28;20026;-40
2022/02/10 21:24:23;;;;;;;5.47;3.17;;;;;;;19.44;40.55;101473.34;5006249;28;20030;-41
2022/02/10 21:27:27;;;;;;;4.97;2.83;;;;;;;19.42;40.36;101467.41;5006378;28;20662;-40
2022/02/10 21:29:40;;;;;;;3.53;2.78;;;;;;;19.38;40.53;101461.66;4996720;28;20417;-40
2022/02/10 21:32:06;;;;;;;5.20;2.67;;;;;;;19.38;40.45;101461.66;5006657;28;20061;-41
2022/02/10 21:34:45;;;;;;;3.47;3.08;;;;;;;19.37;40.47;101467.97;5006167;28;20461;-41
2022/02/10 21:37:13;;;;;;;4.53;2.63;;;;;;;19.35;40.50;101464.69;5003973;28;20096;-42
2022/02/10 21:39:59;;;;;;;5.15;2.67;;;;;;;19.34;40.40;101463.03;5005198;28;20022;-41
2022/02/10 22:08:04;;;;;;;5.85;3.30;;;;;;;19.20;40.73;101437.38;5007218;28;20133;-41
2022/02/10 22:09:39;;;;;;;3.78;3.15;;;;;;;19.18;40.73;101436.75;4992379;28;20056;-40
2022/02/10 22:16:27;;;;;;;5.35;3.47;;;;;;;19.19;40.69;101433.09;5002437;28;20053;-40
2022/02/10 22:20:18;;;;;;;4.60;3.78;;;;;;;19.15;40.67;101426.53;5006473;28;20440;-40
2022/02/10 22:25:28;;;;;;;3.92;2.95;;;;;;;19.13;40.50;101426.69;5005344;28;20129;-40
2022/02/10 22:27:55;;;;;;;6.47;3.95;;;;;;;19.13;40.45;101425.88;4997664;28;20140;-42
2022/02/10 22:30:31;;;;;;;7.25;3.78;;;;;;;19.13;40.46;101428.53;5004777;28;20037;-40
2022/02/10 22:33:20;;;;;;;6.95;3.67;;;;;;;19.11;40.35;101425.22;5006337;28;20113;-40
2022/02/10 22:35:42;;;;;;;3.97;3.17;;;;;;;19.10;40.27;101420.94;4999786;28;20034;-40
2022/02/10 22:38:07;;;;;;;7.57;3.53;;;;;;;19.09;40.32;101416.66;5015977;28;20030;-40
2022/02/10 22:40:59;;;;;;;6.25;3.17;;;;;;;19.10;40.34;101416.50;5022583;28;20029;-40
2022/02/10 22:43:24;;;;;;;5.45;2.83;;;;;;;19.09;40.24;101421.94;5006696;28;20037;-39
2022/02/10 22:45:50;;;;;;;6.97;3.60;;;;;;;19.10;40.65;101418.31;5010779;28;20075;-41
2022/02/10 22:48:15;;;;;;;5.93;2.97;;;;;;;19.12;40.93;101418.94;5026061;28;20074;-40
2022/02/10 22:50:41;;;;;;;5.90;3.78;;;;;;;19.11;41.12;101415.50;5024994;28;20026;-40
2022/02/10 22:53:06;;;;;;;6.20;3.08;;;;;;;19.12;41.26;101416.31;5023395;28;20128;-40
2022/02/10 22:55:32;;;;;;;5.53;3.25;;;;;;;19.12;41.38;101411.84;5007566;28;20113;-40
2022/02/10 22:57:58;;;;;;;4.55;3.28;;;;;;;19.11;41.36;101404.09;5011272;28;20030;-40
2022/02/10 23:00:30;;;;;;;4.32;2.92;;;;;;;19.09;41.26;101408.75;5017123;28;20030;-40
2022/02/10 23:02:56;;;;;;;5.13;2.85;;;;;;;19.06;41.17;101402.00;5007277;28;20599;-40
2022/02/10 23:05:23;;;;;;;6.05;3.25;;;;;;;19.07;41.14;101402.81;5010372;28;20033;-40
2022/02/10 23:07:54;;;;;;;8.07;3.63;;;;;;;19.04;40.99;101397.88;4996876;28;20031;-41
2022/02/10 23:12:45;;;;;;;5.45;3.40;;;;;;;19.03;40.98;101396.25;5007861;28;20054;-40
2022/02/10 23:15:11;;;;;;;5.43;3.90;;;;;;;19.02;41.04;101400.69;5007810;28;20037;-40
2022/02/10 23:17:39;;;;;;;6.07;4.20;;;;;;;19.02;41.15;101397.25;5008126;28;20128;-40
2022/02/10 23:20:05;;;;;;;6.88;4.72;;;;;;;19.01;41.12;101396.41;5004442;28;20025;-40
2022/02/10 23:22:31;;;;;;;5.97;4.13;;;;;;;19.00;41.11;101396.59;5007045;28;20041;-40
2022/02/10 23:24:56;;;;;;;4.38;3.60;;;;;;;18.99;41.10;101401.06;5005063;28;20021;-40
2022/02/10 23:27:21;;;;;;;7.22;4.85;;;;;;;18.99;41.05;101397.59;5006663;28;20029;-39
2022/02/10 23:29:48;;;;;;;5.35;3.95;;;;;;;18.98;41.07;101398.59;5006197;28;20076;-40
2022/02/10 23:32:14;;;;;;;6.13;3.63;;;;;;;18.97;40.92;101405.69;5005226;28;20022;-41
2022/02/10 23:34:39;;;;;;;3.45;2.85;;;;;;;18.96;40.98;101398.75;5007106;28;20034;-39
2022/02/10 23:37:05;;;;;;;6.63;3.58;;;;;;;18.95;40.65;101398.94;5006280;28;20164;-39
2022/02/10 23:39:35;;;;;;;4.60;2.95;;;;;;;18.94;40.79;101407.84;5005649;28;20045;-40
2022/02/10 23:42:26;;;;;;;4.80;3.47;;;;;;;18.92;40.63;101407.22;5005356;28;20080;-40
2022/02/10 23:44:51;;;;;;;4.28;3.03;;;;;;;18.88;40.86;101402.31;5006998;28;20045;-40
2022/02/10 23:47:21;;;;;;;4.95;3.17;;;;;;;18.88;40.76;101404.13;5016424;28;20041;-40
2022/02/10 23:49:50;;;;;;;4.40;3.35;;;;;;;18.87;40.68;101400.66;5008927;28;20125;-40
2022/02/10 23:52:16;;;;;;;11.35;4.32;;;;;;;18.85;40.66;101397.38;5006909;28;20069;-41
2022/02/10 23:54:44;;;;;;;7.40;3.65;;;;;;;18.85;40.70;101407.13;5007965;28;20025;-41
2022/02/10 23:57:20;;;;;;;3.95;3.00;;;;;;;18.86;40.75;101395.56;5008663;28;20029;-42
